Time;durP1;ratioP1;P1;durP2;ratioP2;P2;SDS_P1;SDS_P2;PMS_P1;PMS_P2;Temp;Humidity;BMP_temperature;BMP_pressure;BME280_temperature;BME280_humidity;BME280_pressure;Samples;Min_cycle;Max_cycle;Signal;HPM_P1;HPM_P2
2023/05/02 00:01:58;;;;;;;29.90;14.40;;;;;;;5.20;100.00;101213.74;106809;1276;24259;-74
2023/05/02 00:04:26;;;;;;;30.20;14.60;;;;;;;5.18;100.00;101214.06;106797;1276;22752;-73
2023/05/02 00:06:53;;;;;;;30.60;14.00;;;;;;;5.17;100.00;101215.59;106797;1276;24441;-73
2023/05/02 00:09:20;;;;;;;36.30;15.30;;;;;;;5.17;100.00;101216.83;106806;1276;25528;-73
2023/05/02 00:11:48;;;;;;;30.70;14.80;;;;;;;5.17;100.00;101215.23;106838;1276;22540;-73
2023/05/02 00:14:15;;;;;;;27.50;13.30;;;;;;;5.16;100.00;101224.59;106800;1276;22520;-73
2023/05/02 00:16:42;;;;;;;26.20;13.00;;;;;;;5.15;100.00;101226.61;106823;1276;22567;-73
2023/05/02 00:19:09;;;;;;;28.00;12.90;;;;;;;5.14;100.00;101226.67;106833;1276;25376;-73
2023/05/02 00:21:37;;;;;;;25.80;12.00;;;;;;;5.12;100.00;101232.70;106779;1276;22530;-73
2023/05/02 00:24:04;;;;;;;28.30;12.20;;;;;;;5.09;100.00;101235.23;106822;1276;22650;-73
2023/05/02 00:26:31;;;;;;;23.50;11.40;;;;;;;5.08;100.00;101241.94;106816;1276;22527;-73
2023/05/02 00:29:00;;;;;;;22.40;10.80;;;;;;;5.06;100.00;101241.70;106823;1276;23861;-73
2023/05/02 00:31:27;;;;;;;24.20;11.70;;;;;;;5.06;100.00;101249.19;106791;1276;24212;-73
2023/05/02 00:33:55;;;;;;;25.00;11.10;;;;;;;5.06;100.00;101252.46;106805;1276;23061;-73
2023/05/02 00:36:22;;;;;;;20.00;10.50;;;;;;;5.04;100.00;101253.64;106799;1276;22986;-73
2023/05/02 00:38:49;;;;;;;20.60;9.90;;;;;;;5.02;100.00;101257.20;106798;1276;24235;-73
2023/05/02 00:41:17;;;;;;;19.50;9.70;;;;;;;4.99;100.00;101256.66;106789;1276;25351;-73
2023/05/02 00:43:44;;;;;;;20.80;10.50;;;;;;;4.97;100.00;101258.21;106804;1276;22916;-73
2023/05/02 00:46:11;;;;;;;17.70;9.30;;;;;;;4.94;100.00;101261.41;106775;1276;25278;-73
2023/05/02 00:48:39;;;;;;;19.30;9.80;;;;;;;4.94;100.00;101263.63;106567;1264;24327;-73
2023/05/02 00:51:07;;;;;;;18.00;8.60;;;;;;;4.94;100.00;101264.83;106585;1276;25263;-74
2023/05/02 00:53:35;;;;;;;17.20;8.50;;;;;;;4.93;100.00;101267.61;106638;1276;22517;-73
2023/05/02 00:56:02;;;;;;;15.60;7.60;;;;;;;4.91;100.00;101272.55;106720;1276;22505;-73
2023/05/02 00:58:29;;;;;;;16.00;7.60;;;;;;;4.90;100.00;101275.54;106776;1276;24283;-73
2023/05/02 01:01:21;;;;;;;15.20;7.90;;;;;;;4.87;100.00;101279.43;106790;1277;25357;-73
2023/05/02 01:04:00;;;;;;;16.90;7.20;;;;;;;4.87;100.00;101279.66;106763;1277;22664;-73
2023/05/02 01:06:40;;;;;;;18.50;7.60;;;;;;;4.86;100.00;101281.34;106791;1277;22646;-73
2023/05/02 01:09:39;;;;;;;15.00;7.50;;;;;;;4.83;100.00;101285.09;106881;1277;25253;-73
2023/05/02 01:12:27;;;;;;;18.40;8.40;;;;;;;4.80;100.00;101291.89;106778;1277;25337;-72
2023/05/02 01:14:55;;;;;;;14.10;7.40;;;;;;;4.77;100.00;101291.39;106826;1277;25249;-74
2023/05/02 01:17:25;;;;;;;15.30;6.80;;;;;;;4.74;100.00;101298.88;106675;1277;22524;-73
2023/05/02 01:19:55;;;;;;;15.00;7.00;;;;;;;4.72;100.00;101302.28;106782;1277;25373;-73
2023/05/02 01:22:23;;;;;;;14.40;7.30;;;;;;;4.70;100.00;101300.78;106844;1277;22811;-73
2023/05/02 01:24:59;;;;;;;13.90;6.30;;;;;;;4.69;100.00;101306.04;106526;1277;22537;-73
2023/05/02 01:27:32;;;;;;;12.90;5.80;;;;;;;4.68;100.00;101311.09;106782;1277;22553;-73
2023/05/02 01:30:00;;;;;;;11.60;5.70;;;;;;;4.67;100.00;101313.65;106868;1277;22523;-73
2023/05/02 01:32:29;;;;;;;12.30;6.40;;;;;;;4.65;100.00;101319.70;106696;1277;22526;-73
2023/05/02 01:34:57;;;;;;;13.10;7.10;;;;;;;4.63;100.00;101322.32;106768;1277;22524;-73
2023/05/02 01:37:25;;;;;;;16.20;7.70;;;;;;;4.61;100.00;101323.90;106742;1277;24352;-73
2023/05/02 01:39:53;;;;;;;14.00;6.60;;;;;;;4.60;100.00;101321.84;106719;1277;22523;-73
2023/05/02 01:42:20;;;;;;;15.10;7.40;;;;;;;4.59;100.00;101324.37;106761;1277;22531;-73
2023/05/02 01:44:47;;;;;;;17.00;8.10;;;;;;;4.59;100.00;101329.42;106809;1277;24268;-73
2023/05/02 01:47:15;;;;;;;15.50;7.90;;;;;;;4.56;100.00;101329.73;106017;1277;1003379;-73
2023/05/02 01:49:42;;;;;;;17.30;8.40;;;;;;;4.53;100.00;101332.77;106722;1277;22531;-73
2023/05/02 01:52:10;;;;;;;20.40;9.50;;;;;;;4.51;100.00;101334.52;106522;1277;22516;-73
2023/05/02 01:54:37;;;;;;;21.20;9.20;;;;;;;4.48;100.00;101338.46;106537;1277;24389;-73
2023/05/02 01:57:05;;;;;;;21.80;10.60;;;;;;;4.47;100.00;101343.04;106692;1277;25474;-73
2023/05/02 01:59:32;;;;;;;21.20;11.00;;;;;;;4.47;100.00;101342.09;106616;1275;23149;-73
2023/05/02 02:02:00;;;;;;;22.20;10.00;;;;;;;4.49;100.00;101347.67;106837;1275;24596;-73
2023/05/02 02:04:27;;;;;;;16.60;9.40;;;;;;;4.53;100.00;101350.31;106796;1275;22525;-73
2023/05/02 02:07:02;;;;;;;19.10;8.20;;;;;;;4.53;100.00;101353.89;106728;1275;23879;-73
2023/05/02 02:09:30;;;;;;;19.30;8.40;;;;;;;4.52;100.00;101359.99;106874;1275;24376;-73
2023/05/02 02:12:19;;;;;;;17.40;8.40;;;;;;;4.51;100.00;101363.12;106834;1275;22517;-73
2023/05/02 02:14:50;;;;;;;15.00;7.80;;;;;;;4.48;100.00;101362.95;106802;1275;22565;-74
2023/05/02 02:17:24;;;;;;;13.70;6.90;;;;;;;4.45;100.00;101372.80;106959;1275;22589;-73
2023/05/02 02:19:53;;;;;;;14.40;7.20;;;;;;;4.41;100.00;101375.92;106853;1275;24295;-73
2023/05/02 02:22:20;;;;;;;16.30;7.80;;;;;;;4.38;100.00;101380.90;106879;1276;22599;-73
2023/05/02 02:24:47;;;;;;;17.50;8.50;;;;;;;4.37;100.00;101385.98;106793;1276;25425;-73
2023/05/02 02:27:15;;;;;;;18.30;8.60;;;;;;;4.36;100.00;101389.41;106817;1276;22510;-74
2023/05/02 02:29:42;;;;;;;16.50;8.00;;;;;;;4.35;100.00;101391.27;106769;1276;23016;-74
2023/05/02 02:32:11;;;;;;;17.60;8.40;;;;;;;4.33;100.00;101400.52;106783;1276;22524;-74
2023/05/02 02:34:39;;;;;;;20.30;9.70;;;;;;;4.30;100.00;101404.13;106801;1276;22534;-74
2023/05/02 02:37:12;;;;;;;17.60;8.90;;;;;;;4.26;100.00;101411.88;106781;1276;22585;-72
2023/05/02 02:39:59;;;;;;;19.70;11.10;;;;;;;4.21;100.00;101414.65;106800;1276;22802;-72
2023/05/02 02:42:42;;;;;;;22.00;9.80;;;;;;;4.17;100.00;101416.67;106818;1276;22633;-72
2023/05/02 02:45:29;;;;;;;18.90;9.40;;;;;;;4.17;100.00;101417.23;106820;1276;22516;-72
2023/05/02 02:48:15;;;;;;;23.60;9.20;;;;;;;4.18;100.00;101426.45;106796;1276;25521;-73
2023/05/02 02:51:01;;;;;;;22.40;9.50;;;;;;;4.20;100.00;101433.47;106787;1276;22516;-74
2023/05/02 02:53:53;;;;;;;26.40;12.10;;;;;;;4.22;100.00;101433.13;106834;1276;25319;-74
2023/05/02 02:56:28;;;;;;;24.30;10.90;;;;;;;4.30;100.00;101430.50;106863;1275;22535;-74
2023/05/02 02:59:06;;;;;;;27.00;11.20;;;;;;;4.36;100.00;101444.19;106854;1275;22766;-72
2023/05/02 03:01:34;;;;;;;24.50;11.20;;;;;;;4.41;100.00;101449.64;106819;1277;25331;-73
2023/05/02 03:04:02;;;;;;;25.20;11.90;;;;;;;4.44;100.00;101453.93;106580;1277;25348;-73
2023/05/02 03:06:29;;;;;;;20.20;9.40;;;;;;;4.45;100.00;101460.98;106742;1277;25387;-73
2023/05/02 03:08:57;;;;;;;17.40;8.50;;;;;;;4.47;100.00;101464.25;106761;1277;25415;-73
2023/05/02 03:11:26;;;;;;;18.80;8.70;;;;;;;4.49;100.00;101467.33;106782;1277;22545;-73
2023/05/02 03:13:56;;;;;;;21.30;8.40;;;;;;;4.51;100.00;101472.38;106776;1277;25479;-73
2023/05/02 03:16:41;;;;;;;14.90;6.50;;;;;;;4.54;100.00;101474.00;106801;1277;22566;-73
2023/05/02 03:19:11;;;;;;;15.90;6.70;;;;;;;4.59;100.00;101478.14;106786;1277;22535;-73
2023/05/02 03:21:38;;;;;;;13.00;5.80;;;;;;;4.63;100.00;101484.14;106799;1277;22636;-73
2023/05/02 03:24:10;;;;;;;12.50;5.60;;;;;;;4.68;100.00;101481.69;106786;1277;22986;-73
2023/05/02 03:26:37;;;;;;;12.50;5.10;;;;;;;4.74;100.00;101488.79;106784;1277;24235;-73
2023/05/02 03:29:05;;;;;;;10.60;4.80;;;;;;;4.81;100.00;101489.96;106787;1277;22519;-73
2023/05/02 03:31:35;;;;;;;7.90;4.10;;;;;;;4.87;100.00;101493.68;106760;1277;22461;-73
2023/05/02 03:34:02;;;;;;;9.00;4.70;;;;;;;4.94;100.00;101496.61;106783;1277;22635;-73
2023/05/02 03:36:30;;;;;;;9.80;4.60;;;;;;;5.03;100.00;101497.13;106792;1277;22560;-73
2023/05/02 03:38:57;;;;;;;9.50;4.60;;;;;;;5.09;100.00;101497.95;106770;1277;25463;-73
2023/05/02 03:41:25;;;;;;;13.00;5.40;;;;;;;5.16;100.00;101495.76;104577;1277;1003656;-73
2023/05/02 03:43:58;;;;;;;15.70;5.90;;;;;;;5.24;100.00;101495.60;106812;1277;22536;-72
2023/05/02 03:46:25;;;;;;;12.20;5.30;;;;;;;5.33;100.00;101496.61;106771;1277;22520;-73
2023/05/02 03:48:53;;;;;;;11.40;5.00;;;;;;;5.42;100.00;101499.61;106757;1277;22519;-73
2023/05/02 03:51:20;;;;;;;11.80;4.90;;;;;;;5.48;100.00;101498.48;106795;1277;22520;-73
2023/05/02 03:53:48;;;;;;;8.60;4.50;;;;;;;5.53;100.00;101488.65;106777;1277;22661;-73
2023/05/02 03:56:18;;;;;;;8.40;4.40;;;;;;;5.58;100.00;101485.65;106805;1276;22524;-74
2023/05/02 03:58:49;;;;;;;14.50;5.60;;;;;;;5.65;100.00;101478.89;106783;1276;22566;-73
2023/05/02 04:01:18;;;;;;;13.00;5.30;;;;;;;5.74;100.00;101474.41;106862;1276;22521;-73
2023/05/02 04:03:49;;;;;;;49.40;14.80;;;;;;;5.81;100.00;101462.09;106806;1276;22518;-75
2023/05/02 04:06:18;;;;;;;13.90;6.00;;;;;;;5.88;100.00;101450.86;106847;1276;22516;-75
2023/05/02 04:08:51;;;;;;;15.30;5.90;;;;;;;5.99;100.00;101444.23;106813;1276;24910;-74
2023/05/02 04:11:19;;;;;;;19.90;8.40;;;;;;;6.09;100.00;101441.02;106813;1276;22518;-73
2023/05/02 04:13:46;;;;;;;12.60;5.10;;;;;;;6.19;100.00;101433.02;104598;1276;1004780;-73
2023/05/02 04:16:14;;;;;;;12.10;5.40;;;;;;;6.28;100.00;101415.67;106800;1276;24278;-74
2023/05/02 04:18:41;;;;;;;12.30;5.20;;;;;;;6.37;100.00;101409.33;106804;1276;22635;-73
2023/05/02 04:21:09;;;;;;;12.10;5.60;;;;;;;6.48;100.00;101398.69;106804;1276;22516;-74
2023/05/02 04:23:37;;;;;;;12.60;5.30;;;;;;;6.60;100.00;101388.70;106842;1276;22524;-74
2023/05/02 04:26:05;;;;;;;9.10;4.90;;;;;;;6.73;100.00;101389.69;106854;1276;22534;-74
2023/05/02 04:28:42;;;;;;;9.60;4.90;;;;;;;6.86;100.00;101382.67;106782;1276;22523;-76
2023/05/02 04:31:11;;;;;;;12.00;5.30;;;;;;;6.97;100.00;101380.03;106781;1276;22534;-74
2023/05/02 04:33:39;;;;;;;11.50;4.70;;;;;;;7.09;100.00;101376.27;106801;1276;22523;-74
2023/05/02 04:36:09;;;;;;;27.30;9.00;;;;;;;7.19;100.00;101378.55;106861;1276;25223;-73
2023/05/02 04:38:38;;;;;;;45.00;19.50;;;;;;;7.32;100.00;101373.06;106815;1276;22531;-74
2023/05/02 04:41:06;;;;;;;31.50;11.60;;;;;;;7.45;100.00;101371.05;106843;1276;25454;-74
2023/05/02 04:43:40;;;;;;;65.00;23.10;;;;;;;7.60;100.00;101367.36;106825;1276;22621;-73
2023/05/02 04:46:08;;;;;;;38.60;15.40;;;;;;;7.78;100.00;101372.80;106828;1276;22527;-74
2023/05/02 04:48:41;;;;;;;67.90;29.00;;;;;;;7.96;100.00;101370.45;106798;1276;22523;-75
2023/05/02 04:51:09;;;;;;;25.10;10.00;;;;;;;8.17;100.00;101370.75;106836;1276;24235;-74
2023/05/02 04:53:36;;;;;;;109.30;36.10;;;;;;;8.36;100.00;101370.88;106866;1276;22520;-74
2023/05/02 04:56:04;;;;;;;146.10;47.10;;;;;;;8.55;100.00;101370.13;106783;1277;25449;-74
2023/05/02 04:58:34;;;;;;;25.70;10.90;;;;;;;8.72;100.00;101371.71;106780;1277;22553;-74
2023/05/02 05:01:05;;;;;;;155.60;38.90;;;;;;;8.89;100.00;101377.95;106794;1276;25588;-73
2023/05/02 05:03:33;;;;;;;126.50;42.10;;;;;;;9.06;100.00;101376.14;106790;1276;22519;-73
2023/05/02 05:06:01;;;;;;;115.30;42.70;;;;;;;9.24;100.00;101387.61;106806;1276;22997;-73
2023/05/02 05:08:29;;;;;;;47.10;20.20;;;;;;;9.43;100.00;101394.81;106841;1276;22530;-74
2023/05/02 05:10:56;;;;;;;54.30;19.20;;;;;;;9.60;100.00;101397.68;106926;1276;25383;-73
2023/05/02 05:13:24;;;;;;;112.20;36.50;;;;;;;9.79;100.00;101400.35;106087;1276;1003073;-73
2023/05/02 05:15:51;;;;;;;38.00;13.80;;;;;;;9.97;100.00;101404.18;106813;1276;22506;-74
2023/05/02 05:18:22;;;;;;;24.80;10.10;;;;;;;10.13;100.00;101403.20;106820;1276;22523;-73
2023/05/02 05:20:49;;;;;;;90.70;31.10;;;;;;;10.32;100.00;101391.46;106802;1276;22520;-73
2023/05/02 05:23:17;;;;;;;187.00;65.00;;;;;;;10.51;100.00;101368.46;106706;1276;22512;-75
2023/05/02 05:25:44;;;;;;;302.50;99.70;;;;;;;10.68;100.00;101342.39;106081;1276;1003497;-73
2023/05/02 05:28:14;;;;;;;182.30;57.00;;;;;;;10.86;100.00;101320.36;106807;1276;22536;-73
2023/05/02 05:30:42;;;;;;;25.70;11.10;;;;;;;11.04;100.00;101302.48;106801;1276;25341;-75
2023/05/02 05:33:12;;;;;;;50.30;17.50;;;;;;;11.17;100.00;101287.71;106894;1276;22522;-71
2023/05/02 05:35:39;;;;;;;127.00;44.20;;;;;;;11.26;100.00;101277.65;106835;1276;25326;-70
2023/05/02 05:38:07;;;;;;;54.20;19.70;;;;;;;11.38;100.00;101270.77;106751;1276;22524;-74
2023/05/02 05:40:36;;;;;;;25.90;9.90;;;;;;;11.51;100.00;101267.02;106842;1276;26785;-71
2023/05/02 05:43:04;;;;;;;20.30;7.90;;;;;;;11.67;100.00;101269.14;106721;1276;25341;-74
2023/05/02 05:45:35;;;;;;;69.70;30.20;;;;;;;11.85;100.00;101275.10;106824;1276;24868;-72
2023/05/02 05:48:04;;;;;;;80.50;35.30;;;;;;;12.06;100.00;101272.20;106830;1272;25309;-73
2023/05/02 05:50:35;;;;;;;169.00;70.10;;;;;;;12.21;100.00;101292.04;106971;1273;22527;-74
2023/05/02 05:53:02;;;;;;;108.00;48.70;;;;;;;12.32;100.00;101294.74;106794;1277;22520;-74
2023/05/02 05:55:29;;;;;;;18.40;8.30;;;;;;;12.44;100.00;101317.29;106777;1273;22524;-73
2023/05/02 05:57:57;;;;;;;19.90;7.40;;;;;;;12.47;100.00;101338.83;106842;1275;22533;-74
2023/05/02 06:00:25;;;;;;;154.10;68.60;;;;;;;12.49;100.00;101347.31;106796;1270;25313;-72
2023/05/02 06:02:52;;;;;;;184.30;81.40;;;;;;;12.62;100.00;101342.41;106821;1276;22646;-73
2023/05/02 06:05:29;;;;;;;112.00;45.00;;;;;;;12.88;100.00;101338.61;106810;1276;22515;-72
2023/05/02 06:07:57;;;;;;;31.30;13.40;;;;;;;13.17;100.00;101344.17;106799;1276;24254;-71
2023/05/02 06:10:25;;;;;;;42.40;15.70;;;;;;;13.36;100.00;101356.19;106696;1276;25246;-72
2023/05/02 06:12:53;;;;;;;537.60;216.90;;;;;;;13.50;100.00;101361.49;106705;1276;183446;-76
2023/05/02 06:15:25;;;;;;;50.80;26.80;;;;;;;13.64;100.00;101369.14;106912;1276;22543;-74
2023/05/02 06:17:52;;;;;;;16.40;7.20;;;;;;;13.79;100.00;101376.28;106911;1275;24765;-71
2023/05/02 06:20:20;;;;;;;10.40;4.90;;;;;;;13.94;100.00;101389.70;106715;1276;25405;-73
2023/05/02 06:22:47;;;;;;;26.20;11.20;;;;;;;14.05;100.00;101395.17;106851;1270;22515;-74
2023/05/02 06:25:15;;;;;;;292.00;121.30;;;;;;;14.18;100.00;101399.77;106947;1272;24224;-73
2023/05/02 06:27:42;;;;;;;47.70;23.70;;;;;;;14.31;100.00;101399.70;106810;1273;23868;-73
2023/05/02 06:30:10;;;;;;;14.10;5.80;;;;;;;14.52;100.00;101381.33;106827;1276;25243;-74
2023/05/02 06:32:37;;;;;;;10.00;4.30;;;;;;;14.66;100.00;101378.18;106700;1274;22520;-72
2023/05/02 06:35:05;;;;;;;12.70;4.50;;;;;;;14.80;100.00;101382.46;106811;1276;22527;-74
2023/05/02 06:37:34;;;;;;;12.50;5.20;;;;;;;14.97;100.00;101387.20;106853;1276;24378;-76
2023/05/02 06:40:02;;;;;;;22.20;6.30;;;;;;;15.04;100.00;101355.73;106795;1276;22640;-74
2023/05/02 06:42:30;;;;;;;103.30;32.80;;;;;;;15.09;100.00;101252.60;106488;1276;22536;-73
2023/05/02 06:44:57;;;;;;;16.00;5.70;;;;;;;15.22;100.00;101088.31;106763;1275;25297;-73
2023/05/02 06:47:25;;;;;;;14.50;4.90;;;;;;;15.41;100.00;100951.08;106617;1275;22542;-73
2023/05/02 06:49:52;;;;;;;9.60;3.70;;;;;;;15.57;100.00;100880.41;106802;1276;22531;-73
2023/05/02 06:52:20;;;;;;;6.20;3.20;;;;;;;15.70;100.00;100842.59;106979;1276;22595;-73
2023/05/02 06:54:47;;;;;;;8.50;3.40;;;;;;;15.84;100.00;100796.93;106815;1276;24356;-72
2023/05/02 06:57:14;;;;;;;9.80;3.20;;;;;;;15.96;100.00;100752.75;106913;1276;23435;-72
2023/05/02 07:12:12;;;;;;;7.60;3.40;;;;;;;16.06;100.00;100621.97;104498;1304;558147;-73
2023/05/02 07:14:39;;;;;;;11.40;3.50;;;;;;;15.99;100.00;100615.77;106296;1280;206479;-72
2023/05/02 07:17:07;;;;;;;12.40;4.60;;;;;;;16.10;100.00;100617.77;106640;1280;25336;-73
2023/05/02 07:19:36;;;;;;;10.20;3.90;;;;;;;16.27;100.00;100627.35;106762;1280;24235;-72
2023/05/02 07:22:03;;;;;;;17.10;5.90;;;;;;;16.43;100.00;100644.59;106749;1280;22762;-71
2023/05/02 07:24:30;;;;;;;21.80;5.20;;;;;;;16.50;100.00;100701.20;106655;1280;22536;-70
2023/05/02 07:26:57;;;;;;;287.00;120.00;;;;;;;16.41;100.00;100767.69;106626;1280;25345;-70
2023/05/02 07:29:25;;;;;;;41.80;18.10;;;;;;;16.31;100.00;100786.73;106693;1280;22732;-71
2023/05/02 07:31:52;;;;;;;13.10;5.50;;;;;;;16.39;100.00;100794.41;106741;1280;25434;-71
2023/05/02 07:34:19;;;;;;;7.50;3.70;;;;;;;16.44;100.00;100823.55;106615;1280;22636;-71
2023/05/02 07:36:47;;;;;;;6.50;3.40;;;;;;;16.50;100.00;100851.24;106643;1280;22628;-69
2023/05/02 07:39:15;;;;;;;12.80;5.60;;;;;;;16.62;100.00;100864.70;106591;1273;25389;-70
2023/05/02 08:04:25;;;;;;;20.30;9.60;;;;;;;17.99;100.00;100979.61;104851;1297;557679;-80
2023/05/02 08:06:54;;;;;;;7.30;4.20;;;;;;;18.44;100.00;100980.92;107780;1284;200311;-72
2023/05/02 08:09:22;;;;;;;13.10;5.10;;;;;;;18.72;100.00;100985.07;106394;1284;25886;-73
2023/05/02 08:11:49;;;;;;;7.40;3.00;;;;;;;18.95;100.00;100982.60;106589;1287;24392;-70
2023/05/02 08:14:16;;;;;;;12.10;3.20;;;;;;;18.98;100.00;100967.84;106852;1259;25487;-70
2023/05/02 08:16:44;;;;;;;12.40;5.20;;;;;;;18.95;100.00;100964.73;107067;1278;22462;-73
2023/05/02 08:19:14;;;;;;;10.20;3.60;;;;;;;18.93;100.00;100977.83;106946;1278;24304;-73
2023/05/02 08:21:41;;;;;;;5.70;2.20;;;;;;;18.78;100.00;100990.17;106929;1273;22530;-76
2023/05/02 08:24:09;;;;;;;7.10;3.40;;;;;;;18.86;100.00;100982.55;107035;1274;22526;-77
2023/05/02 08:26:39;;;;;;;6.50;3.10;;;;;;;19.09;100.00;100979.80;107299;1271;22628;-78
2023/05/02 08:29:06;;;;;;;3.90;2.60;;;;;;;19.38;100.00;100978.17;107012;1278;22536;-77
2023/05/02 08:31:34;;;;;;;7.30;2.60;;;;;;;19.65;100.00;100977.36;106837;1273;22521;-73
2023/05/02 08:34:04;;;;;;;4.20;3.00;;;;;;;19.87;100.00;100973.99;106652;1278;25376;-71
2023/05/02 08:36:32;;;;;;;14.70;7.60;;;;;;;20.02;100.00;100981.19;106841;1278;26603;-73
2023/05/02 08:38:59;;;;;;;6.30;3.00;;;;;;;20.01;100.00;100984.43;107036;1272;22532;-72
2023/05/02 08:41:27;;;;;;;50.90;21.70;;;;;;;19.86;100.00;100997.26;106892;1276;25604;-74
2023/05/02 08:43:55;;;;;;;11.80;4.70;;;;;;;19.68;100.00;100993.14;106549;1275;24781;-73
2023/05/02 08:46:22;;;;;;;6.90;3.80;;;;;;;19.75;100.00;100996.13;106528;1278;22990;-78
2023/05/02 08:48:50;;;;;;;9.70;4.20;;;;;;;19.84;100.00;100996.16;106662;1278;22542;-75
2023/05/02 08:51:17;;;;;;;38.70;25.20;;;;;;;19.91;100.00;100993.45;106843;1278;22534;-74
2023/05/02 08:53:51;;;;;;;18.30;8.40;;;;;;;20.09;100.00;100992.96;106789;1277;23869;-70
2023/05/02 08:56:18;;;;;;;24.60;14.50;;;;;;;20.30;100.00;100986.20;106673;1276;22534;-69
2023/05/02 08:58:45;;;;;;;6.40;4.20;;;;;;;20.52;100.00;100982.71;106644;1278;22525;-69
2023/05/02 09:01:17;;;;;;;5.50;3.10;;;;;;;20.75;100.00;100980.70;106804;1278;22601;-73
2023/05/02 09:03:46;;;;;;;10.90;3.50;;;;;;;20.95;100.00;100988.81;106741;1278;22520;-71
2023/05/02 09:06:18;;;;;;;11.50;3.50;;;;;;;20.99;100.00;100990.78;106679;1272;22521;-73
2023/05/02 09:08:51;;;;;;;9.40;3.00;;;;;;;20.97;100.00;100996.20;106679;1273;24235;-69
2023/05/02 09:11:18;;;;;;;5.40;2.40;;;;;;;20.99;100.00;100991.30;106539;1273;25386;-68
2023/05/02 09:13:52;;;;;;;7.10;2.90;;;;;;;21.05;100.00;100994.86;106510;1272;22531;-71
2023/05/02 09:16:24;;;;;;;8.30;3.50;;;;;;;21.22;100.00;100988.96;106678;1277;22696;-70
2023/05/02 09:18:54;;;;;;;22.20;10.40;;;;;;;21.50;99.43;100988.49;106739;1275;25301;-75
2023/05/02 09:21:24;;;;;;;8.70;2.90;;;;;;;21.59;90.30;100983.59;106660;1279;22527;-73
2023/05/02 09:23:53;;;;;;;65.80;5.10;;;;;;;21.51;82.82;100983.67;106764;1278;22602;-73
2023/05/02 09:26:22;;;;;;;13.40;3.30;;;;;;;21.41;83.83;100989.96;106721;1279;22534;-74
2023/05/02 09:28:51;;;;;;;10.70;2.90;;;;;;;21.39;81.71;100991.46;106731;1278;25422;-73
2023/05/02 09:31:24;;;;;;;5.00;2.10;;;;;;;21.30;78.27;100989.13;106826;1278;22612;-78
2023/05/02 09:34:15;;;;;;;8.90;2.50;;;;;;;21.28;85.92;100989.65;106784;1278;22531;-77
2023/05/02 09:36:46;;;;;;;11.20;3.00;;;;;;;21.42;85.55;100996.95;106927;1275;25362;-66
2023/05/02 09:39:28;;;;;;;5.50;2.00;;;;;;;21.56;80.75;100995.25;106648;1271;22618;-67
2023/05/02 09:41:56;;;;;;;6.00;1.90;;;;;;;21.58;77.90;100997.27;106782;1275;22769;-66
2023/05/02 09:44:25;;;;;;;3.40;1.90;;;;;;;21.55;77.51;101003.55;106772;1275;24285;-72
2023/05/02 09:46:54;;;;;;;4.30;2.50;;;;;;;21.54;75.88;101003.27;106950;1275;24370;-71
2023/05/02 09:49:44;;;;;;;7.70;3.50;;;;;;;21.54;74.14;101005.34;106793;1275;22513;-70
2023/05/02 09:52:16;;;;;;;6.70;1.90;;;;;;;21.53;66.92;100999.88;106808;1275;22524;-69
2023/05/02 09:54:45;;;;;;;4.40;1.70;;;;;;;21.37;66.56;101005.43;106787;1270;23693;-70
2023/05/02 09:57:16;;;;;;;3.60;2.10;;;;;;;21.33;68.69;101006.77;106739;1269;25416;-68
2023/05/02 09:59:55;;;;;;;3.10;2.20;;;;;;;21.21;71.00;101004.70;106895;1272;25585;-68
2023/05/02 10:02:25;;;;;;;3.70;1.60;;;;;;;21.29;76.19;101001.38;106818;1276;22519;-69
2023/05/02 10:05:05;;;;;;;10.00;2.80;;;;;;;21.40;75.31;101001.14;106845;1269;22668;-69
2023/05/02 10:07:33;;;;;;;3.70;1.90;;;;;;;21.42;78.61;100999.19;106800;1272;24328;-69
2023/05/02 10:10:00;;;;;;;4.20;2.80;;;;;;;21.53;75.22;101001.06;106877;1269;24273;-70
2023/05/02 10:12:28;;;;;;;4.50;2.00;;;;;;;21.62;75.21;100999.36;106808;1275;24223;-69
2023/05/02 10:15:02;;;;;;;4.30;1.90;;;;;;;21.53;69.22;101005.16;106917;1275;24034;-68
2023/05/02 10:17:38;;;;;;;6.90;2.00;;;;;;;21.38;70.65;101005.48;106943;1269;25588;-73
2023/05/02 10:20:06;;;;;;;2.80;1.80;;;;;;;21.27;73.72;101003.96;107038;1276;24286;-72
2023/05/02 10:22:35;;;;;;;5.80;2.00;;;;;;;21.32;75.38;100997.71;107236;1270;25625;-68
2023/05/02 10:25:03;;;;;;;4.00;2.60;;;;;;;21.39;78.16;101001.56;107005;1274;25354;-71
2023/05/02 10:27:32;;;;;;;4.00;2.50;;;;;;;21.53;80.68;100999.73;107100;1273;22579;-73
2023/05/02 10:30:03;;;;;;;3.20;2.10;;;;;;;21.72;79.56;100997.05;107138;1275;22687;-73
2023/05/02 10:32:31;;;;;;;4.60;2.00;;;;;;;21.86;76.41;101005.34;107165;1275;23257;-70
2023/05/02 10:35:03;;;;;;;4.60;2.10;;;;;;;21.93;76.57;101002.75;106875;1271;24217;-69
2023/05/02 10:37:34;;;;;;;3.20;2.00;;;;;;;22.05;74.36;101003.60;106883;1275;24767;-71
2023/05/02 10:40:01;;;;;;;4.10;2.00;;;;;;;22.14;73.70;101004.59;106706;1272;24241;-70
2023/05/02 10:42:29;;;;;;;4.10;3.00;;;;;;;22.22;73.67;101007.87;106785;1276;24234;-70
2023/05/02 10:44:56;;;;;;;2.00;1.80;;;;;;;22.28;69.88;101006.10;106920;1276;22563;-70
2023/05/02 10:47:25;;;;;;;5.50;2.10;;;;;;;22.28;69.61;100999.75;106963;1273;22654;-69
2023/05/02 10:50:00;;;;;;;2.50;2.10;;;;;;;22.31;69.41;101003.33;106909;1276;25355;-69
2023/05/02 10:52:32;;;;;;;4.70;2.40;;;;;;;22.25;65.43;101002.81;106853;1276;25373;-69
2023/05/02 10:55:16;;;;;;;2.50;2.20;;;;;;;22.12;67.99;101009.17;107001;1276;22772;-71
2023/05/02 10:57:57;;;;;;;3.40;1.90;;;;;;;21.96;67.18;101005.41;107056;1276;25683;-70
2023/05/02 11:00:25;;;;;;;7.00;2.20;;;;;;;21.70;68.58;101002.16;107080;1276;22721;-71
2023/05/02 11:02:53;;;;;;;7.20;2.40;;;;;;;21.56;71.69;101005.88;106999;1276;24276;-72
2023/05/02 11:05:24;;;;;;;3.90;2.10;;;;;;;21.60;77.48;101005.93;107053;1275;24253;-68
2023/05/02 11:08:29;;;;;;;3.80;1.90;;;;;;;21.80;80.81;101005.01;107006;1275;22699;-70
2023/05/02 11:10:56;;;;;;;8.00;2.00;;;;;;;22.06;79.62;101005.92;107052;1275;24241;-68
2023/05/02 11:13:49;;;;;;;4.60;2.90;;;;;;;22.30;81.55;101003.38;106981;1276;24261;-71
2023/05/02 11:16:17;;;;;;;5.40;2.40;;;;;;;22.56;80.02;100994.33;107052;1273;22780;-72
2023/05/02 11:19:17;;;;;;;4.40;1.90;;;;;;;22.65;75.56;100993.66;107044;1275;22746;-67
2023/05/02 11:21:44;;;;;;;2.80;1.90;;;;;;;22.53;71.96;100992.98;106633;1276;25505;-69
2023/05/02 11:24:48;;;;;;;6.10;2.30;;;;;;;22.58;76.88;100990.44;106508;1279;25426;-68
2023/05/02 11:27:36;;;;;;;5.30;1.70;;;;;;;22.64;76.21;100992.08;106564;1280;24227;-68
2023/05/02 11:30:28;;;;;;;8.60;1.80;;;;;;;22.65;77.10;100991.35;106758;1278;24316;-70
2023/05/02 11:33:04;;;;;;;3.70;1.50;;;;;;;22.67;73.59;100997.43;106434;1276;24177;-72
2023/05/02 11:35:33;;;;;;;6.10;1.80;;;;;;;22.67;69.64;100997.64;106219;1282;22903;-72
2023/05/02 11:38:02;;;;;;;5.20;1.60;;;;;;;22.43;62.81;101000.64;106279;1281;24557;-71
2023/05/02 11:40:55;;;;;;;2.00;1.70;;;;;;;22.13;66.03;100997.73;106282;1277;22638;-73
2023/05/02 11:43:26;;;;;;;5.80;2.10;;;;;;;21.91;66.66;100993.73;106198;1284;25316;-70
2023/05/02 11:45:58;;;;;;;5.20;2.60;;;;;;;21.73;70.63;101000.21;106224;1284;24522;-72
2023/05/02 11:48:26;;;;;;;3.50;1.70;;;;;;;21.70;75.36;100996.89;106415;1285;25474;-69
2023/05/02 11:51:02;;;;;;;6.40;1.90;;;;;;;21.87;77.51;100996.28;106383;1278;22542;-69
2023/05/02 11:53:31;;;;;;;5.80;1.80;;;;;;;22.07;76.39;100993.71;106549;1278;22688;-71
2023/05/02 11:56:03;;;;;;;6.40;1.90;;;;;;;22.16;71.56;100989.23;106442;1280;24636;-70
2023/05/02 11:58:32;;;;;;;9.00;2.10;;;;;;;22.15;68.21;100988.65;106846;1280;22766;-69